createdAt,value
2022-11-02T00:01:42.467Z,3.15
2022-11-02T00:04:15.515Z,5.25
2022-11-02T00:06:47.674Z,2.95
2022-11-02T00:09:19.601Z,4.03
2022-11-02T00:11:51.553Z,2.97
2022-11-02T00:14:23.539Z,5.20
2022-11-02T00:16:55.535Z,3.65
2022-11-02T00:19:27.661Z,5.72
2022-11-02T00:22:01.930Z,5.25
2022-11-02T00:24:35.436Z,4.72
2022-11-02T00:27:07.749Z,7.22
2022-11-02T00:29:39.814Z,2.65
2022-11-02T00:32:11.969Z,5.88
2022-11-02T00:34:44.013Z,2.85
2022-11-02T00:37:15.970Z,3.55
2022-11-02T00:39:48.248Z,3.20
2022-11-02T00:42:20.356Z,3.38
2022-11-02T00:44:52.292Z,5.82
2022-11-02T00:47:24.371Z,3.95
2022-11-02T00:49:56.270Z,3.10
2022-11-02T00:53:25.181Z,4.20
2022-11-02T00:56:06.775Z,5.15
2022-11-02T00:58:38.953Z,4.57
2022-11-02T01:01:11.034Z,3.35
2022-11-02T01:03:43.125Z,3.10
2022-11-02T01:06:15.859Z,3.08
2022-11-02T01:08:47.905Z,6.55
2022-11-02T01:11:23.018Z,3.60
2022-11-02T01:13:55.380Z,3.30
2022-11-02T01:16:27.436Z,2.45
2022-11-02T01:19:00.142Z,2.67
2022-11-02T01:21:32.096Z,3.72
2022-11-02T01:24:04.339Z,11.02
2022-11-02T01:26:36.855Z,3.17
2022-11-02T01:29:08.955Z,3.83
2022-11-02T01:31:41.008Z,3.22
2022-11-02T01:34:12.985Z,3.08
2022-11-02T01:36:48.905Z,3.60
2022-11-02T01:39:21.196Z,3.60
2022-11-02T01:41:53.907Z,3.03
2022-11-02T01:44:34.403Z,3.35
2022-11-02T01:47:11.623Z,3.03
2022-11-02T01:50:17.630Z,3.45
2022-11-02T01:53:42.965Z,4.03
2022-11-02T01:56:20.710Z,3.85
2022-11-02T01:59:01.745Z,3.33
2022-11-02T02:01:39.401Z,4.47
2022-11-02T02:04:12.809Z,3.33
2022-11-02T02:06:45.520Z,5.22
2022-11-02T02:09:19.553Z,2.63
2022-11-02T02:11:52.128Z,4.63
2022-11-02T02:14:24.975Z,6.50
2022-11-02T02:17:12.057Z,5.18
2022-11-02T02:20:16.515Z,7.60
2022-11-02T02:23:26.767Z,2.42
2022-11-02T02:26:31.612Z,6.20
2022-11-02T02:29:46.512Z,3.50
2022-11-02T02:33:03.289Z,4.63
2022-11-02T02:36:17.289Z,3.53
2022-11-02T02:39:13.184Z,2.90
2022-11-02T02:42:01.384Z,4.18
2022-11-02T02:44:58.026Z,4.40
2022-11-02T02:48:02.723Z,2.72
2022-11-02T02:50:54.685Z,5.15
2022-11-02T02:53:40.845Z,5.95
2022-11-02T02:56:19.865Z,4.15
2022-11-02T02:58:59.664Z,2.95
2022-11-02T03:01:39.528Z,2.38
2022-11-02T03:04:14.028Z,5.13
2022-11-02T03:07:34.247Z,5.75
2022-11-02T03:10:21.621Z,2.50
2022-11-02T03:13:10.084Z,13.68
2022-11-02T03:16:00.778Z,3.40
2022-11-02T03:18:54.889Z,4.40
2022-11-02T03:21:59.592Z,3.28
2022-11-02T03:25:02.887Z,4.15
2022-11-02T03:28:10.351Z,4.75
2022-11-02T03:30:56.957Z,7.38
2022-11-02T03:33:55.170Z,3.10
2022-11-02T03:36:56.531Z,4.07
2022-11-02T03:39:42.653Z,4.90
2022-11-02T03:42:27.062Z,3.55
2022-11-02T03:45:10.788Z,6.47
2022-11-02T03:47:56.175Z,2.33
2022-11-02T03:50:37.372Z,6.32
2022-11-02T03:53:32.310Z,5.13
2022-11-02T03:56:19.212Z,3.35
2022-11-02T03:58:58.518Z,2.63
2022-11-02T04:01:32.313Z,2.65
2022-11-02T04:04:11.955Z,2.72
2022-11-02T04:06:46.434Z,6.32
2022-11-02T04:09:18.905Z,2.90
2022-11-02T04:12:09.419Z,3.78
2022-11-02T04:15:01.325Z,2.90
2022-11-02T04:17:51.778Z,3.78
2022-11-02T04:20:43.535Z,4.55
2022-11-02T04:23:39.646Z,3.10
2022-11-02T04:26:31.639Z,4.72
2022-11-02T04:29:04.461Z,3.60
2022-11-02T04:31:36.449Z,3.65
2022-11-02T04:34:08.507Z,2.65
2022-11-02T04:36:41.605Z,2.83
2022-11-02T04:39:13.565Z,3.08
2022-11-02T04:41:45.900Z,3.92
2022-11-02T04:44:17.942Z,3.88
2022-11-02T04:46:52.078Z,4.80
2022-11-02T04:49:24.205Z,4.65
2022-11-02T04:51:56.213Z,4.03
2022-11-02T04:54:28.127Z,4.15
2022-11-02T04:57:00.102Z,2.50
2022-11-02T04:59:32.143Z,4.10
2022-11-02T05:02:04.236Z,3.55
2022-11-02T05:04:36.284Z,5.00
2022-11-02T05:07:10.456Z,2.45
2022-11-02T05:09:42.511Z,2.85
2022-11-02T05:12:14.868Z,4.13
2022-11-02T05:14:46.913Z,3.75
2022-11-02T05:17:18.847Z,6.05
2022-11-02T05:19:50.864Z,3.17
2022-11-02T05:22:23.192Z,2.55
2022-11-02T05:24:55.415Z,2.60
2022-11-02T05:27:27.400Z,4.60
2022-11-02T05:30:00.175Z,6.35
2022-11-02T05:32:32.274Z,5.47
2022-11-02T05:35:04.758Z,4.13
2022-11-02T05:37:37.285Z,2.30
2022-11-02T05:40:09.980Z,2.25
2022-11-02T05:42:42.550Z,2.88
2022-11-02T05:45:14.504Z,5.72
2022-11-02T05:47:46.579Z,4.30
2022-11-02T05:50:18.698Z,4.30
2022-11-02T05:52:51.123Z,3.20
2022-11-02T05:55:24.956Z,3.03
2022-11-02T05:57:57.233Z,4.43
2022-11-02T06:00:29.234Z,5.10
2022-11-02T06:03:01.374Z,5.88
2022-11-02T06:05:33.824Z,5.80
2022-11-02T06:08:06.135Z,6.60
2022-11-02T06:10:38.730Z,3.40
2022-11-02T06:13:14.104Z,7.32
2022-11-02T06:15:46.230Z,3.60
2022-11-02T06:18:18.230Z,4.05
2022-11-02T06:20:50.170Z,3.28
2022-11-02T06:23:22.204Z,11.07
2022-11-02T06:25:59.243Z,3.58
2022-11-02T06:28:32.116Z,4.05
2022-11-02T06:31:04.250Z,2.95
2022-11-02T06:33:36.316Z,6.68
2022-11-02T06:36:08.937Z,6.82
2022-11-02T06:38:42.101Z,6.70
2022-11-02T06:41:15.035Z,7.03
2022-11-02T06:43:47.279Z,7.60
2022-11-02T06:46:19.470Z,4.13
2022-11-02T06:48:52.193Z,6.10
2022-11-02T06:51:24.117Z,4.22
2022-11-02T06:53:56.159Z,5.68
2022-11-02T06:56:28.092Z,3.80
2022-11-02T06:59:00.338Z,3.05
2022-11-02T07:01:32.534Z,9.20
2022-11-02T07:04:05.909Z,3.92
2022-11-02T07:06:37.975Z,5.82
2022-11-02T07:09:10.107Z,5.60
2022-11-02T07:11:42.149Z,4.28
2022-11-02T07:14:14.405Z,5.10
2022-11-02T07:17:05.023Z,4.65
2022-11-02T07:19:37.192Z,2.50
2022-11-02T07:22:09.331Z,5.63
2022-11-02T07:24:41.338Z,5.78
2022-11-02T07:27:13.288Z,3.10
2022-11-02T07:29:45.723Z,4.57
2022-11-02T07:32:18.142Z,7.13
2022-11-02T07:34:50.101Z,2.42
2022-11-02T07:37:22.279Z,6.57
2022-11-02T07:39:54.221Z,5.05
2022-11-02T07:42:26.164Z,3.78
2022-11-02T07:44:58.112Z,5.97
2022-11-02T07:47:30.994Z,4.90
2022-11-02T07:50:04.481Z,9.13
2022-11-02T07:52:44.129Z,3.72
2022-11-02T07:55:20.021Z,3.50
2022-11-02T07:58:01.674Z,4.78
2022-11-02T08:00:38.925Z,2.30
2022-11-02T08:03:12.917Z,3.92
2022-11-02T08:05:45.994Z,6.43
2022-11-02T08:08:20.099Z,5.35
2022-11-02T08:10:53.967Z,4.10
2022-11-02T08:13:26.125Z,5.72
2022-11-02T08:15:58.209Z,3.25
2022-11-02T08:18:30.902Z,7.00
2022-11-02T08:21:04.370Z,5.88
2022-11-02T08:23:36.565Z,5.93
2022-11-02T08:26:08.540Z,4.65
2022-11-02T08:28:40.527Z,3.25
2022-11-02T08:31:16.336Z,4.97
2022-11-02T08:33:48.395Z,4.82
2022-11-02T08:36:20.860Z,5.20
2022-11-02T08:38:52.876Z,4.82
2022-11-02T08:41:24.904Z,3.60
2022-11-02T08:43:57.627Z,2.70
2022-11-02T08:46:30.249Z,4.07
2022-11-02T08:49:02.419Z,3.85
2022-11-02T08:51:34.384Z,4.13
2022-11-02T08:54:06.399Z,4.78
2022-11-02T08:56:38.548Z,5.10
2022-11-02T08:59:11.096Z,4.30
2022-11-02T09:01:43.574Z,4.47
2022-11-02T09:04:15.777Z,7.75
2022-11-02T09:06:48.033Z,5.53
2022-11-02T09:09:20.163Z,5.20
2022-11-02T09:11:52.156Z,3.58
2022-11-02T09:14:24.303Z,3.42
2022-11-02T09:16:56.413Z,3.70
2022-11-02T09:19:28.502Z,3.25
2022-11-02T09:22:05.492Z,7.68
2022-11-02T09:24:37.831Z,5.00
2022-11-02T09:27:09.811Z,3.45
2022-11-02T09:29:41.778Z,4.47
2022-11-02T09:32:13.907Z,8.10
2022-11-02T09:34:47.820Z,3.45
2022-11-02T09:37:21.346Z,4.50
2022-11-02T09:39:53.391Z,4.60
2022-11-02T09:43:04.733Z,6.60
2022-11-02T09:45:53.977Z,4.93
2022-11-02T09:48:41.810Z,5.00
2022-11-02T09:51:32.454Z,4.35
2022-11-02T09:54:47.459Z,5.40
2022-11-02T09:57:32.519Z,4.80
2022-11-02T10:00:05.771Z,9.30
2022-11-02T10:03:20.252Z,7.00
2022-11-02T10:06:15.963Z,7.18
2022-11-02T10:08:54.963Z,9.50
2022-11-02T10:11:57.947Z,6.97
2022-11-02T10:14:59.600Z,5.78
2022-11-02T10:17:39.834Z,4.93
2022-11-02T10:20:23.734Z,3.47
2022-11-02T10:23:09.337Z,4.82
2022-11-02T10:25:50.564Z,4.55
2022-11-02T10:28:29.873Z,3.85
2022-11-02T10:31:30.377Z,4.78
2022-11-02T10:34:24.776Z,7.10
2022-11-02T10:37:17.079Z,5.35
2022-11-02T10:40:14.944Z,2.65
2022-11-02T10:43:32.066Z,3.60
2022-11-02T10:46:33.972Z,3.70
2022-11-02T10:49:40.411Z,4.93
2022-11-02T10:52:23.706Z,5.57
2022-11-02T10:54:56.918Z,5.18
2022-11-02T10:57:30.252Z,4.45
2022-11-02T11:00:23.281Z,3.67
2022-11-02T11:03:11.638Z,9.82
2022-11-02T11:06:02.298Z,5.38
2022-11-02T11:08:43.805Z,4.13
2022-11-02T11:11:27.247Z,5.97
2022-11-02T11:20:02.775Z,3.17
2022-11-02T11:23:31.087Z,5.28
2022-11-02T11:26:11.711Z,3.78
2022-11-02T11:29:03.815Z,3.85
2022-11-02T11:31:52.086Z,3.08
2022-11-02T11:34:30.366Z,3.67
2022-11-02T11:37:09.675Z,6.25
2022-11-02T11:39:53.945Z,3.35
2022-11-02T11:42:35.687Z,4.95
2022-11-02T11:45:29.445Z,4.00
2022-11-02T11:48:34.421Z,4.28
2022-11-02T11:51:25.989Z,6.18
2022-11-02T11:54:28.205Z,5.32
2022-11-02T11:57:28.027Z,5.07
2022-11-02T12:00:29.209Z,4.53
2022-11-02T12:03:11.253Z,4.30
2022-11-02T12:05:57.292Z,4.63
2022-11-02T12:09:04.696Z,6.50
2022-11-02T12:12:21.452Z,4.97
2022-11-02T12:15:11.086Z,3.42
2022-11-02T12:18:30.635Z,4.03
2022-11-02T12:21:47.355Z,2.75
2022-11-02T12:24:56.691Z,5.55
2022-11-02T12:27:56.721Z,2.10
2022-11-02T12:31:15.888Z,6.18
2022-11-02T12:34:19.599Z,6.57
2022-11-02T12:40:50.752Z,5.85
2022-11-02T12:43:46.780Z,3.92
2022-11-02T12:46:39.080Z,4.40
2022-11-02T12:49:35.828Z,4.72
2022-11-02T12:52:33.632Z,7.95
2022-11-02T12:55:24.113Z,4.93
2022-11-02T12:58:20.840Z,5.30
2022-11-02T13:01:12.331Z,6.55
2022-11-02T13:04:26.158Z,5.82
2022-11-02T13:07:13.448Z,4.97
2022-11-02T13:10:06.898Z,4.07
2022-11-02T13:12:55.712Z,2.63
2022-11-02T13:15:38.142Z,4.28
2022-11-02T13:18:21.118Z,6.15
2022-11-02T13:21:04.298Z,4.38
2022-11-02T13:23:57.008Z,4.10
2022-11-02T13:26:41.553Z,3.15
2022-11-02T13:29:25.929Z,8.05
2022-11-02T13:32:33.847Z,5.63
2022-11-02T13:35:33.551Z,2.42
2022-11-02T13:38:27.969Z,9.30
2022-11-02T13:41:14.843Z,13.00
2022-11-02T13:44:44.049Z,7.50
2022-11-02T13:47:50.775Z,5.60
2022-11-02T13:50:49.022Z,5.45
2022-11-02T13:53:33.717Z,3.45
2022-11-02T13:56:21.037Z,2.70
2022-11-02T13:59:04.016Z,3.40
2022-11-02T14:01:40.919Z,4.20
2022-11-02T14:04:16.589Z,2.65
2022-11-02T14:07:04.879Z,6.35
2022-11-02T14:09:47.671Z,6.00
2022-11-02T14:12:23.656Z,5.90
2022-11-02T14:15:13.361Z,8.85
2022-11-02T14:18:25.992Z,5.13
2022-11-02T14:21:41.095Z,5.28
2022-11-02T14:24:32.894Z,7.05
2022-11-02T14:27:24.667Z,2.80
2022-11-02T14:29:59.278Z,4.68
2022-11-02T14:32:40.999Z,5.05
2022-11-02T14:35:40.865Z,4.30
2022-11-02T14:39:00.347Z,3.78
2022-11-02T14:41:42.425Z,5.45
2022-11-02T14:44:57.248Z,5.57
2022-11-02T14:47:39.164Z,6.60
2022-11-02T14:50:11.227Z,5.78
2022-11-02T14:53:03.936Z,3.72
2022-11-02T14:55:39.576Z,8.40
2022-11-02T14:58:18.860Z,4.00
2022-11-02T15:00:53.157Z,8.75
2022-11-02T15:03:28.634Z,5.97
2022-11-02T15:06:10.638Z,3.63
2022-11-02T15:08:54.717Z,5.53
2022-11-02T15:11:45.597Z,9.18
2022-11-02T15:14:36.229Z,6.03
2022-11-02T15:17:27.976Z,5.90
2022-11-02T15:20:32.128Z,6.75
2022-11-02T15:23:14.455Z,6.00
2022-11-02T15:25:55.759Z,5.10
2022-11-02T15:28:32.567Z,4.75
2022-11-02T15:31:14.961Z,7.97
2022-11-02T15:33:53.605Z,4.00
2022-11-02T15:36:31.171Z,4.15
2022-11-02T15:39:09.815Z,6.90
2022-11-02T15:41:54.540Z,8.13
2022-11-02T15:45:26.692Z,5.90
2022-11-02T15:48:28.360Z,5.20
2022-11-02T15:51:26.133Z,4.57
2022-11-02T15:54:46.272Z,6.88
2022-11-02T15:57:54.821Z,8.60
2022-11-02T16:01:06.475Z,3.50
2022-11-02T16:03:58.794Z,5.63
2022-11-02T16:06:38.477Z,5.15
2022-11-02T16:09:42.317Z,7.13
2022-11-02T16:12:20.896Z,5.63
2022-11-02T16:15:10.436Z,2.78
2022-11-02T16:17:50.243Z,4.82
2022-11-02T16:20:25.172Z,4.63
2022-11-02T16:23:13.407Z,4.15
2022-11-02T16:25:56.307Z,9.95
2022-11-02T16:28:34.572Z,8.48
2022-11-02T16:31:17.822Z,11.32
2022-11-02T16:33:57.438Z,5.47
2022-11-02T16:36:36.677Z,6.85
2022-11-02T16:39:25.393Z,7.57
2022-11-02T16:42:02.080Z,7.63
2022-11-02T16:44:41.135Z,9.70
2022-11-02T16:47:14.621Z,13.77
2022-11-02T16:49:51.999Z,10.68
2022-11-02T16:52:35.931Z,6.07
2022-11-02T16:55:30.463Z,7.63
2022-11-02T16:58:21.883Z,10.93
2022-11-02T17:01:01.058Z,7.45
2022-11-02T17:03:34.893Z,12.50
2022-11-02T17:06:07.821Z,9.43
2022-11-02T17:08:41.411Z,10.25
2022-11-02T17:11:21.747Z,8.63
2022-11-02T17:14:00.195Z,5.82
2022-11-02T17:16:34.352Z,9.00
2022-11-02T17:19:26.479Z,9.20
2022-11-02T17:22:25.881Z,11.98
2022-11-02T17:25:27.625Z,12.80
2022-11-02T17:28:24.889Z,7.45
2022-11-02T17:31:24.697Z,9.40
2022-11-02T17:34:15.249Z,5.50
2022-11-02T17:36:50.896Z,8.43
2022-11-02T17:39:23.980Z,11.23
2022-11-02T17:42:17.517Z,8.43
2022-11-02T17:45:39.357Z,10.20
2022-11-02T17:48:12.067Z,12.55
2022-11-02T17:50:46.573Z,10.40
2022-11-02T17:53:19.116Z,12.13
2022-11-02T17:55:56.577Z,28.48
2022-11-02T17:58:29.155Z,35.17
2022-11-02T18:01:03.756Z,17.48
2022-11-02T18:03:36.821Z,15.80
2022-11-02T18:06:09.482Z,17.23
2022-11-02T18:09:00.583Z,12.07
2022-11-02T18:11:50.845Z,14.52
2022-11-02T18:14:23.120Z,15.13
2022-11-02T18:16:55.708Z,7.05
2022-11-02T18:19:28.683Z,8.63
2022-11-02T18:22:03.900Z,16.02
2022-11-02T18:24:36.424Z,10.50
2022-11-02T18:27:08.890Z,11.48
2022-11-02T18:29:41.319Z,8.32
2022-11-02T18:32:13.453Z,7.30
2022-11-02T18:34:45.710Z,10.43
2022-11-02T18:37:18.152Z,7.95
2022-11-02T18:39:50.512Z,11.18
2022-11-02T18:42:22.940Z,8.82
2022-11-02T18:44:55.603Z,7.95
2022-11-02T18:47:29.669Z,7.88
2022-11-02T18:50:04.060Z,16.60
2022-11-02T18:52:42.532Z,9.82
2022-11-02T18:55:21.596Z,9.40
2022-11-02T18:57:55.423Z,12.02
2022-11-02T19:00:28.776Z,15.75
2022-11-02T19:03:01.354Z,10.82
2022-11-02T19:05:52.007Z,16.10
2022-11-02T19:09:03.011Z,20.13
2022-11-02T19:12:04.070Z,17.73
2022-11-02T19:14:42.881Z,17.30
2022-11-02T19:17:17.352Z,18.20
2022-11-02T19:19:50.868Z,18.65
2022-11-02T19:22:26.376Z,16.02
2022-11-02T19:25:01.643Z,14.88
2022-11-02T19:27:36.350Z,18.80
2022-11-02T19:30:10.254Z,20.05
2022-11-02T19:32:42.873Z,21.35
2022-11-02T19:35:15.710Z,15.13
2022-11-02T19:37:48.880Z,11.93
2022-11-02T19:40:22.127Z,11.05
2022-11-02T19:42:57.979Z,8.98
2022-11-02T19:45:30.881Z,12.98
2022-11-02T19:48:03.721Z,15.18
2022-11-02T19:50:39.634Z,8.90
2022-11-02T19:53:15.568Z,12.02
2022-11-02T19:55:55.291Z,8.75
2022-11-02T19:58:29.250Z,10.73
2022-11-02T20:01:29.910Z,11.75
2022-11-02T20:04:05.809Z,7.45
2022-11-02T20:06:41.193Z,11.80
2022-11-02T20:09:19.613Z,14.55
2022-11-02T20:11:52.555Z,15.48
2022-11-02T20:14:25.407Z,14.15
2022-11-02T20:17:25.293Z,9.60
2022-11-02T20:19:53.246Z,11.75
2022-11-02T20:22:29.576Z,9.07
2022-11-02T20:25:03.057Z,11.38
2022-11-02T20:27:38.117Z,13.02
2022-11-02T20:30:12.730Z,18.80
2022-11-02T20:32:46.204Z,19.75
2022-11-02T20:35:24.722Z,19.52
2022-11-02T20:37:58.177Z,18.50
2022-11-02T20:40:35.377Z,16.17
2022-11-02T20:43:12.895Z,14.80
2022-11-02T20:45:45.854Z,11.65
2022-11-02T20:48:20.327Z,16.55
2022-11-02T20:50:53.163Z,14.40
2022-11-02T20:53:29.142Z,11.68
2022-11-02T20:56:02.997Z,8.95
2022-11-02T20:58:36.655Z,11.55
2022-11-02T21:01:11.477Z,9.65
2022-11-02T21:03:47.440Z,12.38
2022-11-02T21:06:20.385Z,12.60
2022-11-02T21:08:53.245Z,14.93
2022-11-02T21:11:44.074Z,8.55
2022-11-02T21:14:36.283Z,9.93
2022-11-02T21:17:08.802Z,13.98
2022-11-02T21:19:41.741Z,10.20
2022-11-02T21:22:14.227Z,11.38
2022-11-02T21:24:47.763Z,10.23
2022-11-02T21:27:23.814Z,10.75
2022-11-02T21:29:56.891Z,10.43
2022-11-02T21:32:29.285Z,13.60
2022-11-02T21:35:01.881Z,12.38
2022-11-02T21:37:35.486Z,9.65
2022-11-02T21:40:09.427Z,13.43
2022-11-02T21:42:42.996Z,16.05
2022-11-02T21:45:18.192Z,12.15
2022-11-02T21:47:51.460Z,12.52
2022-11-02T21:50:24.185Z,11.07
2022-11-02T21:52:56.511Z,12.02
2022-11-02T21:55:28.986Z,10.20
2022-11-02T21:58:01.717Z,9.13
2022-11-02T22:00:52.926Z,13.30
2022-11-02T22:03:46.878Z,10.07
2022-11-02T22:06:21.343Z,13.88
2022-11-02T22:08:53.924Z,10.15
2022-11-02T22:11:27.875Z,12.05
2022-11-02T22:14:01.001Z,16.08
2022-11-02T22:16:35.947Z,16.15
2022-11-02T22:19:15.511Z,18.02
2022-11-02T22:21:49.468Z,14.23
2022-11-02T22:24:21.853Z,12.65
2022-11-02T22:26:54.957Z,11.93
2022-11-02T22:29:27.285Z,11.75
2022-11-02T22:31:59.607Z,15.90
2022-11-02T22:34:32.300Z,12.48
2022-11-02T22:37:22.878Z,12.70
2022-11-02T22:40:14.914Z,11.15
2022-11-02T22:42:47.101Z,14.77
2022-11-02T22:45:24.283Z,10.90
2022-11-02T22:47:56.326Z,12.82
2022-11-02T22:50:28.813Z,9.00
2022-11-02T22:53:00.952Z,11.27
2022-11-02T22:55:33.189Z,9.48
2022-11-02T22:58:05.238Z,13.40
2022-11-02T23:00:37.379Z,10.88
2022-11-02T23:03:10.037Z,14.27
2022-11-02T23:05:43.337Z,11.10
2022-11-02T23:08:15.765Z,12.95
2022-11-02T23:11:13.379Z,11.65
2022-11-02T23:13:54.830Z,8.98
2022-11-02T23:16:36.721Z,13.60
2022-11-02T23:19:27.252Z,10.70
2022-11-02T23:22:27.910Z,14.07
2022-11-02T23:25:19.718Z,16.23
2022-11-02T23:28:16.907Z,13.70
2022-11-02T23:31:28.268Z,14.50
2022-11-02T23:34:20.258Z,8.65
2022-11-02T23:36:52.285Z,11.25
2022-11-02T23:39:42.772Z,10.00
2022-11-02T23:42:23.025Z,12.68
2022-11-02T23:44:55.060Z,9.55
2022-11-02T23:47:49.434Z,11.02
2022-11-02T23:50:49.843Z,9.57
2022-11-02T23:54:00.189Z,8.43
2022-11-02T23:56:51.950Z,7.70
2022-11-02T23:59:30.130Z,11.77
